createdAt,value
2017-05-10T00:00:49.553Z,978.48
2017-05-10T00:01:59.831Z,978.48
2017-05-10T00:03:10.098Z,978.41
2017-05-10T00:04:20.055Z,978.45
2017-05-10T00:05:30.010Z,978.41
2017-05-10T00:06:39.955Z,978.41
2017-05-10T00:07:50.249Z,978.39
2017-05-10T00:09:00.516Z,978.45
2017-05-10T00:10:10.465Z,978.39
2017-05-10T00:11:20.724Z,978.4
2017-05-10T00:12:30.977Z,978.4
2017-05-10T00:13:40.625Z,978.44
2017-05-10T00:14:50.887Z,978.43
2017-05-10T00:16:01.146Z,978.38
2017-05-10T00:17:10.779Z,978.42
2017-05-10T00:18:21.042Z,978.45
2017-05-10T00:19:31.300Z,978.47
2017-05-10T00:20:40.933Z,978.47
2017-05-10T00:21:51.196Z,978.47
2017-05-10T00:23:01.496Z,978.48
2017-05-10T00:24:11.751Z,978.46
2017-05-10T00:25:21.698Z,978.48
2017-05-10T00:26:31.959Z,978.5
2017-05-10T00:27:41.906Z,978.47
2017-05-10T00:28:52.185Z,978.48
2017-05-10T00:30:02.132Z,978.45
2017-05-10T00:31:12.393Z,978.45
2017-05-10T00:32:22.659Z,978.45
2017-05-10T00:33:32.918Z,978.44
2017-05-10T00:34:42.877Z,978.46
2017-05-10T00:35:53.130Z,978.48
2017-05-10T00:37:03.386Z,978.52
2017-05-10T00:38:13.643Z,978.45
2017-05-10T00:39:23.908Z,978.49
2017-05-10T00:40:34.169Z,978.47
2017-05-10T00:41:44.109Z,978.5
2017-05-10T00:42:54.367Z,978.45
2017-05-10T00:44:04.639Z,978.44
2017-05-10T00:45:14.584Z,978.44
2017-05-10T00:46:24.853Z,978.38
2017-05-10T00:47:34.795Z,978.39
2017-05-10T00:48:45.064Z,978.38
2017-05-10T00:49:55.028Z,978.37
2017-05-10T00:51:05.291Z,978.37
2017-05-10T00:52:15.545Z,978.33
2017-05-10T00:53:25.807Z,978.29
2017-05-10T00:54:36.068Z,978.24
2017-05-10T00:55:46.324Z,978.24
2017-05-10T00:56:56.579Z,978.22
2017-05-10T00:58:06.831Z,978.23
2017-05-10T00:59:16.783Z,978.21
2017-05-10T01:00:27.042Z,978.25
2017-05-10T01:01:36.986Z,978.21
2017-05-10T01:02:46.932Z,978.21
2017-05-10T01:03:57.195Z,978.24
2017-05-10T01:05:07.450Z,978.24
2017-05-10T01:06:17.739Z,978.26
2017-05-10T01:07:27.997Z,978.24
2017-05-10T01:08:38.260Z,978.23
2017-05-10T01:09:48.203Z,978.21
2017-05-10T01:10:58.473Z,978.17
2017-05-10T01:12:08.738Z,978.12
2017-05-10T01:13:18.694Z,978.12
2017-05-10T01:14:28.944Z,978.13
2017-05-10T01:15:38.895Z,978.13
2017-05-10T01:16:48.520Z,978.09
2017-05-10T01:17:58.781Z,978.13
2017-05-10T01:19:09.033Z,978.15
2017-05-10T01:20:19.296Z,978.2
2017-05-10T01:21:29.240Z,978.2
2017-05-10T01:22:39.186Z,978.21
2017-05-10T01:23:49.129Z,978.19
2017-05-10T01:24:59.387Z,978.17
2017-05-10T01:26:09.654Z,978.18
2017-05-10T01:27:19.947Z,978.2
2017-05-10T01:28:30.206Z,978.18
2017-05-10T01:29:40.465Z,978.17
2017-05-10T01:30:50.401Z,978.21
2017-05-10T01:32:00.349Z,978.23
2017-05-10T01:33:10.300Z,978.24
2017-05-10T01:34:20.575Z,978.21
2017-05-10T01:35:30.521Z,978.2
2017-05-10T01:36:40.464Z,978.18
2017-05-10T01:37:50.723Z,978.15
2017-05-10T01:39:00.984Z,978.16
2017-05-10T01:40:11.238Z,978.16
2017-05-10T01:41:21.493Z,978.18
2017-05-10T01:42:31.481Z,978.21
2017-05-10T01:43:41.751Z,978.18
2017-05-10T01:44:52.023Z,978.16
2017-05-10T01:46:02.284Z,978.16
2017-05-10T01:47:11.923Z,978.16
2017-05-10T01:48:22.181Z,978.16
2017-05-10T01:49:32.443Z,978.14
2017-05-10T01:50:42.702Z,978.16
2017-05-10T01:51:52.653Z,978.18
2017-05-10T01:53:02.910Z,978.18
2017-05-10T01:54:12.864Z,978.19
2017-05-10T01:55:23.120Z,978.14
2017-05-10T01:56:33.386Z,978.2
2017-05-10T01:57:43.644Z,978.14
2017-05-10T01:58:53.912Z,978.14
2017-05-10T02:00:04.173Z,978.17
2017-05-10T02:01:14.430Z,978.09
2017-05-10T02:02:24.687Z,978.14
2017-05-10T02:03:34.954Z,978.12
2017-05-10T02:04:45.220Z,978.12
2017-05-10T02:05:54.858Z,978.13
2017-05-10T02:07:05.123Z,978.09
2017-05-10T02:08:15.388Z,978.08
2017-05-10T02:09:25.647Z,978.1
2017-05-10T02:10:35.954Z,978.08
2017-05-10T02:11:46.214Z,978.06
2017-05-10T02:12:56.470Z,978.09
2017-05-10T02:14:06.732Z,978.08
2017-05-10T02:15:16.994Z,978.08
2017-05-10T02:16:27.257Z,978.06
2017-05-10T02:17:37.515Z,978.04
2017-05-10T02:18:47.774Z,978.03
2017-05-10T02:19:58.038Z,978.04
2017-05-10T02:21:07.669Z,978.05
2017-05-10T02:22:17.926Z,978.02
2017-05-10T02:23:28.193Z,978.02
2017-05-10T02:24:38.453Z,977.99
2017-05-10T02:25:48.716Z,978
2017-05-10T02:26:58.974Z,978.02
2017-05-10T02:28:08.601Z,978.01
2017-05-10T02:29:18.546Z,978
2017-05-10T02:30:28.813Z,978
2017-05-10T02:31:39.078Z,978.04
2017-05-10T02:32:49.339Z,978
2017-05-10T02:33:59.296Z,978.01
2017-05-10T02:35:09.247Z,977.99
2017-05-10T02:36:19.189Z,977.98
2017-05-10T02:37:29.448Z,978
2017-05-10T02:38:39.712Z,977.98
2017-05-10T02:39:49.652Z,977.99
2017-05-10T02:40:59.923Z,978.01
2017-05-10T02:42:09.865Z,978.02
2017-05-10T02:43:20.124Z,978.02
2017-05-10T02:44:30.385Z,978
2017-05-10T02:45:40.647Z,978.04
2017-05-10T02:46:50.595Z,977.98
2017-05-10T02:48:00.851Z,977.99
2017-05-10T02:49:10.820Z,977.98
2017-05-10T02:50:21.086Z,977.97
2017-05-10T02:51:31.385Z,977.99
2017-05-10T02:52:41.330Z,977.96
2017-05-10T02:53:51.283Z,977.99
2017-05-10T02:55:03.737Z,978.01
2017-05-10T02:56:13.370Z,977.97
2017-05-10T02:57:23.631Z,977.94
2017-05-10T02:58:33.888Z,977.96
2017-05-10T02:59:44.157Z,977.98
2017-05-10T03:00:54.413Z,978.01
2017-05-10T03:02:04.370Z,977.97
2017-05-10T03:03:14.633Z,977.99
2017-05-10T03:04:24.896Z,978
2017-05-10T03:05:34.840Z,977.94
2017-05-10T03:06:45.148Z,977.97
2017-05-10T03:07:55.404Z,977.99
2017-05-10T03:09:05.349Z,977.99
2017-05-10T03:10:15.619Z,977.99
2017-05-10T03:11:25.874Z,978
2017-05-10T03:12:36.130Z,977.97
2017-05-10T03:13:46.391Z,977.98
2017-05-10T03:14:56.659Z,977.96
2017-05-10T03:16:06.926Z,978.01
2017-05-10T03:17:16.868Z,978.02
2017-05-10T03:18:27.127Z,978.02
2017-05-10T03:19:37.394Z,978.03
2017-05-10T03:20:47.657Z,977.98
2017-05-10T03:21:57.611Z,978
2017-05-10T03:23:07.557Z,978.02
2017-05-10T03:24:17.818Z,977.96
2017-05-10T03:25:28.083Z,977.97
2017-05-10T03:26:38.025Z,977.97
2017-05-10T03:27:48.287Z,977.95
2017-05-10T03:28:58.578Z,977.96
2017-05-10T03:30:08.521Z,977.96
2017-05-10T03:31:18.466Z,977.95
2017-05-10T03:32:28.731Z,977.93
2017-05-10T03:33:38.988Z,977.92
2017-05-10T03:34:49.257Z,977.93
2017-05-10T03:35:59.534Z,977.9
2017-05-10T03:37:09.787Z,977.89
2017-05-10T03:38:20.049Z,977.9
2017-05-10T03:39:30.308Z,977.89
2017-05-10T03:40:40.567Z,977.87
2017-05-10T03:41:50.825Z,977.87
2017-05-10T03:43:01.079Z,977.83
2017-05-10T03:44:11.336Z,977.84
2017-05-10T03:45:20.966Z,977.86
2017-05-10T03:46:31.227Z,977.85
2017-05-10T03:47:41.486Z,977.84
2017-05-10T03:48:51.753Z,977.81
2017-05-10T03:50:02.018Z,977.84
2017-05-10T03:51:11.963Z,977.84
2017-05-10T03:52:22.237Z,977.82
2017-05-10T03:53:32.190Z,977.8
2017-05-10T03:54:42.457Z,977.83
2017-05-10T03:55:52.739Z,977.82
2017-05-10T03:57:03.005Z,977.82
2017-05-10T03:58:13.265Z,977.8
2017-05-10T03:59:23.524Z,977.83
2017-05-10T04:00:33.783Z,977.8
2017-05-10T04:01:44.041Z,977.81
2017-05-10T04:02:54.294Z,977.78
2017-05-10T04:04:04.562Z,977.82
2017-05-10T04:05:14.833Z,977.78
2017-05-10T04:06:25.090Z,977.76
2017-05-10T04:07:35.039Z,977.79
2017-05-10T04:08:45.299Z,977.79
2017-05-10T04:09:55.274Z,977.78
2017-05-10T04:11:05.576Z,977.75
2017-05-10T04:12:15.840Z,977.77
2017-05-10T04:13:26.137Z,977.78
2017-05-10T04:14:35.776Z,977.71
2017-05-10T04:15:45.718Z,977.69
2017-05-10T04:16:55.977Z,977.75
2017-05-10T04:18:06.251Z,977.74
2017-05-10T04:19:15.881Z,977.76
2017-05-10T04:20:26.152Z,977.74
2017-05-10T04:21:36.414Z,977.76
2017-05-10T04:22:46.679Z,977.79
2017-05-10T04:23:56.955Z,977.82
2017-05-10T04:25:07.215Z,977.79
2017-05-10T04:26:17.480Z,977.78
2017-05-10T04:27:27.732Z,977.78
2017-05-10T04:28:37.996Z,977.79
2017-05-10T04:29:47.976Z,977.82
2017-05-10T04:30:58.237Z,977.77
2017-05-10T04:32:08.185Z,977.81
2017-05-10T04:33:18.453Z,977.81
2017-05-10T04:34:28.713Z,977.81
2017-05-10T04:35:38.964Z,977.82
2017-05-10T04:36:49.220Z,977.8
2017-05-10T04:37:59.158Z,977.75
2017-05-10T04:39:09.421Z,977.81
2017-05-10T04:40:19.676Z,977.79
2017-05-10T04:41:29.930Z,977.74
2017-05-10T04:42:40.185Z,977.81
2017-05-10T04:43:50.453Z,977.83
2017-05-10T04:45:00.711Z,977.83
2017-05-10T04:46:10.655Z,977.83
2017-05-10T04:47:20.914Z,977.81
2017-05-10T04:48:31.177Z,977.84
2017-05-10T04:49:41.135Z,977.82
2017-05-10T04:50:51.400Z,977.82
2017-05-10T04:52:01.660Z,977.83
2017-05-10T04:53:11.918Z,977.81
2017-05-10T04:54:22.183Z,977.84
2017-05-10T04:55:32.141Z,977.85
2017-05-10T04:56:42.149Z,977.82
2017-05-10T04:57:52.091Z,977.83
2017-05-10T04:59:02.067Z,977.81
2017-05-10T05:00:12.332Z,977.8
2017-05-10T05:01:22.293Z,977.84
2017-05-10T05:02:32.561Z,977.83
2017-05-10T05:03:42.815Z,977.86
2017-05-10T05:04:52.446Z,977.9
2017-05-10T05:06:02.707Z,977.88
2017-05-10T05:07:12.964Z,977.9
2017-05-10T05:08:22.907Z,977.9
2017-05-10T05:09:32.899Z,977.86
2017-05-10T05:10:43.177Z,977.89
2017-05-10T05:11:53.125Z,977.88
2017-05-10T05:13:03.382Z,977.88
2017-05-10T05:14:13.331Z,977.91
2017-05-10T05:15:23.595Z,977.9
2017-05-10T05:16:33.850Z,977.95
2017-05-10T05:17:44.109Z,977.91
2017-05-10T05:18:54.048Z,977.92
2017-05-10T05:20:04.304Z,977.94
2017-05-10T05:21:14.247Z,977.9
2017-05-10T05:22:24.515Z,977.94
2017-05-10T05:23:34.775Z,977.93
2017-05-10T05:24:44.726Z,977.89
2017-05-10T05:25:54.986Z,977.88
2017-05-10T05:27:05.252Z,977.93
2017-05-10T05:28:15.199Z,977.91
2017-05-10T05:29:25.457Z,977.89
2017-05-10T05:30:35.725Z,977.89
2017-05-10T05:31:45.989Z,977.87
2017-05-10T05:32:56.249Z,977.89
2017-05-10T05:34:06.504Z,977.87
2017-05-10T05:35:16.764Z,977.85
2017-05-10T05:36:27.021Z,977.86
2017-05-10T05:37:37.276Z,977.83
2017-05-10T05:38:47.538Z,977.87
2017-05-10T05:39:57.184Z,977.88
2017-05-10T05:41:07.446Z,977.89
2017-05-10T05:42:17.398Z,977.85
2017-05-10T05:43:27.667Z,977.9
2017-05-10T05:44:37.934Z,977.89
2017-05-10T05:45:47.879Z,977.83
2017-05-10T05:46:58.140Z,977.86
2017-05-10T05:48:08.098Z,977.92
2017-05-10T05:49:18.048Z,977.85
2017-05-10T05:50:28.321Z,977.85
2017-05-10T05:51:38.584Z,977.87
2017-05-10T05:52:48.535Z,977.86
2017-05-10T05:53:58.476Z,977.86
2017-05-10T05:55:08.423Z,977.87
2017-05-10T05:56:18.405Z,977.87
2017-05-10T05:57:28.345Z,977.87
2017-05-10T05:58:38.610Z,977.82
2017-05-10T05:59:48.877Z,977.86
2017-05-10T06:00:59.140Z,977.83
2017-05-10T06:02:09.402Z,977.92
2017-05-10T06:03:19.672Z,977.9
2017-05-10T06:04:29.937Z,977.9
2017-05-10T06:05:40.199Z,977.94
2017-05-10T06:06:50.455Z,977.93
2017-05-10T06:08:00.707Z,977.95
2017-05-10T06:09:10.660Z,978
2017-05-10T06:10:20.604Z,977.98
2017-05-10T06:11:30.860Z,977.97
2017-05-10T06:12:41.122Z,977.95
2017-05-10T06:13:51.067Z,977.97
2017-05-10T06:15:01.335Z,977.95
2017-05-10T06:16:11.601Z,978.01
2017-05-10T06:17:21.546Z,978
2017-05-10T06:18:31.484Z,977.98
2017-05-10T06:19:41.746Z,978.02
2017-05-10T06:20:52.028Z,977.94
2017-05-10T06:22:02.290Z,977.97
2017-05-10T06:23:12.236Z,978.01
2017-05-10T06:24:22.189Z,978.01
2017-05-10T06:25:32.505Z,978.05
2017-05-10T06:26:42.450Z,978.01
2017-05-10T06:27:52.403Z,978.06
2017-05-10T06:29:02.667Z,978.01
2017-05-10T06:30:12.937Z,977.98
2017-05-10T06:31:23.192Z,978
2017-05-10T06:32:33.452Z,977.98
2017-05-10T06:33:43.406Z,977.97
2017-05-10T06:34:53.358Z,977.97
2017-05-10T06:36:03.640Z,977.92
2017-05-10T06:37:13.591Z,977.9
2017-05-10T06:38:23.856Z,977.95
2017-05-10T06:39:34.126Z,977.93
2017-05-10T06:40:44.069Z,977.96
2017-05-10T06:41:54.335Z,977.93
2017-05-10T06:43:04.286Z,977.88
2017-05-10T06:44:13.607Z,977.89
2017-05-10T06:45:23.551Z,977.91
2017-05-10T06:46:33.506Z,977.91
2017-05-10T06:47:43.453Z,977.91
2017-05-10T06:48:53.408Z,977.92
2017-05-10T06:50:03.674Z,977.87
2017-05-10T06:51:13.304Z,977.85
2017-05-10T06:52:23.249Z,977.87
2017-05-10T06:53:33.197Z,977.88
2017-05-10T06:54:43.144Z,977.87
2017-05-10T06:55:53.406Z,977.87
2017-05-10T06:57:03.668Z,977.85
2017-05-10T06:58:13.925Z,977.91
2017-05-10T06:59:24.187Z,977.88
2017-05-10T07:00:34.698Z,977.89
2017-05-10T07:01:44.966Z,977.85
2017-05-10T07:02:55.243Z,977.9
2017-05-10T07:04:05.241Z,977.89
2017-05-10T07:05:15.500Z,977.93
2017-05-10T07:06:25.763Z,977.92
2017-05-10T07:07:36.026Z,977.88
2017-05-10T07:08:46.292Z,977.91
2017-05-10T07:09:56.563Z,977.89
2017-05-10T07:11:06.512Z,977.89
2017-05-10T07:12:16.785Z,977.9
2017-05-10T07:13:27.063Z,977.87
2017-05-10T07:14:37.371Z,977.91
2017-05-10T07:15:47.641Z,977.88
2017-05-10T07:16:57.916Z,977.93
2017-05-10T07:18:08.183Z,977.88
2017-05-10T07:19:18.141Z,977.85
2017-05-10T07:20:28.406Z,977.86
2017-05-10T07:21:38.352Z,977.85
2017-05-10T07:22:48.300Z,977.87
2017-05-10T07:23:58.253Z,977.85
2017-05-10T07:25:08.202Z,977.86
2017-05-10T07:26:18.149Z,977.83
2017-05-10T07:27:28.416Z,977.83
2017-05-10T07:28:38.685Z,977.86
2017-05-10T07:29:48.949Z,977.87
2017-05-10T07:30:59.212Z,977.83
2017-05-10T07:32:09.475Z,977.85
2017-05-10T07:33:19.421Z,977.83
2017-05-10T07:34:29.685Z,977.85
2017-05-10T07:35:39.930Z,977.86
2017-05-10T07:36:50.194Z,977.79
2017-05-10T07:38:00.141Z,977.81
2017-05-10T07:39:10.404Z,977.79
2017-05-10T07:40:20.692Z,977.82
2017-05-10T07:41:30.959Z,977.8
2017-05-10T07:42:40.904Z,977.81
2017-05-10T07:43:50.855Z,977.83
2017-05-10T07:45:01.120Z,977.87
2017-05-10T07:46:11.376Z,977.88
2017-05-10T07:47:21.650Z,977.92
2017-05-10T07:48:31.597Z,977.9
2017-05-10T07:49:41.863Z,977.9
2017-05-10T07:50:52.119Z,977.86
2017-05-10T07:52:02.383Z,977.89
2017-05-10T07:53:12.689Z,977.85
2017-05-10T07:54:22.648Z,977.88
2017-05-10T07:55:32.920Z,977.83
2017-05-10T07:56:43.203Z,977.84
2017-05-10T07:57:53.481Z,977.87
2017-05-10T07:59:03.124Z,977.87
2017-05-10T08:00:12.767Z,977.88
2017-05-10T08:01:22.723Z,977.86
2017-05-10T08:02:32.673Z,977.81
2017-05-10T08:03:42.667Z,977.82
2017-05-10T08:04:52.991Z,977.83
2017-05-10T08:06:03.272Z,977.82
2017-05-10T08:07:13.541Z,977.85
2017-05-10T08:08:23.807Z,977.88
2017-05-10T08:09:34.079Z,977.89
2017-05-10T08:10:44.658Z,977.86
2017-05-10T08:11:54.934Z,977.81
2017-05-10T08:13:04.579Z,977.77
2017-05-10T08:14:14.851Z,977.73
2017-05-10T08:15:25.121Z,977.69
2017-05-10T08:16:35.120Z,977.68
2017-05-10T08:17:45.385Z,977.65
2017-05-10T08:18:55.659Z,977.69
2017-05-10T08:20:05.309Z,977.74
2017-05-10T08:21:14.949Z,977.74
2017-05-10T08:22:25.207Z,977.81
2017-05-10T08:23:35.477Z,977.75
2017-05-10T08:24:45.744Z,977.69
2017-05-10T08:25:56.005Z,977.67
2017-05-10T08:27:05.956Z,977.68
2017-05-10T08:28:15.912Z,977.67
2017-05-10T08:29:26.209Z,977.69
2017-05-10T08:30:36.168Z,977.74
2017-05-10T08:31:46.425Z,977.74
2017-05-10T08:32:56.692Z,977.72
2017-05-10T08:34:06.952Z,977.76
2017-05-10T08:35:16.905Z,977.81
2017-05-10T08:36:26.863Z,977.76
2017-05-10T08:37:37.123Z,977.75
2017-05-10T08:38:47.389Z,977.66
2017-05-10T08:39:57.651Z,977.67
2017-05-10T08:41:07.907Z,977.66
2017-05-10T08:42:17.539Z,977.64
2017-05-10T08:43:27.825Z,977.58
2017-05-10T08:44:38.104Z,977.59
2017-05-10T08:45:48.365Z,977.7
2017-05-10T08:46:58.628Z,977.68
2017-05-10T08:48:08.584Z,977.68
2017-05-10T08:49:18.541Z,977.63
2017-05-10T08:50:28.811Z,977.68
2017-05-10T08:51:38.760Z,977.65
2017-05-10T08:52:48.712Z,977.58
2017-05-10T08:53:58.987Z,977.62
2017-05-10T08:55:09.263Z,977.61
2017-05-10T08:56:19.526Z,977.64
2017-05-10T08:57:29.798Z,977.57
2017-05-10T08:58:39.748Z,977.53
2017-05-10T08:59:50.032Z,977.47
2017-05-10T09:01:00.298Z,977.48
2017-05-10T09:02:10.570Z,977.58
2017-05-10T09:03:20.538Z,977.49
2017-05-10T09:04:30.807Z,977.47
2017-05-10T09:05:41.069Z,977.53
2017-05-10T09:06:51.019Z,977.55
2017-05-10T09:08:01.289Z,977.61
2017-05-10T09:09:11.553Z,977.61
2017-05-10T09:10:21.827Z,977.64
2017-05-10T09:11:32.086Z,977.68
2017-05-10T09:12:42.038Z,977.64
2017-05-10T09:13:51.991Z,977.58
2017-05-10T09:15:02.263Z,977.59
2017-05-10T09:16:12.214Z,977.66
2017-05-10T09:17:22.476Z,977.64
2017-05-10T09:18:32.744Z,977.62
2017-05-10T09:19:43.010Z,977.59
2017-05-10T09:20:53.274Z,977.62
2017-05-10T09:22:03.225Z,977.56
2017-05-10T09:23:13.176Z,977.58
2017-05-10T09:24:23.443Z,977.54
2017-05-10T09:25:33.392Z,977.49
2017-05-10T09:26:43.654Z,977.51
2017-05-10T09:27:53.919Z,977.52
2017-05-10T09:29:03.896Z,977.49
2017-05-10T09:30:13.859Z,977.52
2017-05-10T09:31:24.120Z,977.5
2017-05-10T09:32:34.384Z,977.52
2017-05-10T09:33:44.018Z,977.49
2017-05-10T09:34:54.283Z,977.48
2017-05-10T09:36:03.918Z,977.38
2017-05-10T09:37:14.180Z,977.33
2017-05-10T09:38:24.125Z,977.38
2017-05-10T09:39:34.397Z,977.36
2017-05-10T09:40:44.358Z,977.4
2017-05-10T09:41:54.315Z,977.37
2017-05-10T09:43:04.322Z,977.39
2017-05-10T09:44:14.684Z,977.41
2017-05-10T09:45:24.633Z,977.43
2017-05-10T09:46:34.891Z,977.47
2017-05-10T09:47:45.153Z,977.55
2017-05-10T09:48:55.418Z,977.58
2017-05-10T09:50:05.366Z,977.45
2017-05-10T09:51:15.005Z,977.58
2017-05-10T09:52:25.271Z,977.59
2017-05-10T09:53:35.218Z,977.64
2017-05-10T09:54:45.485Z,977.64
2017-05-10T09:55:55.759Z,977.58
2017-05-10T09:57:05.709Z,977.47
2017-05-10T09:58:15.676Z,977.65
2017-05-10T09:59:25.624Z,977.64
2017-05-10T10:00:35.884Z,977.58
2017-05-10T10:01:45.832Z,977.6
2017-05-10T10:02:56.098Z,977.67
2017-05-10T10:04:06.365Z,977.71
2017-05-10T10:05:16.006Z,977.74
2017-05-10T10:06:25.960Z,977.67
2017-05-10T10:07:35.912Z,977.69
2017-05-10T10:08:45.860Z,977.71
2017-05-10T10:09:56.129Z,977.71
2017-05-10T10:11:06.086Z,977.75
2017-05-10T10:12:15.721Z,977.75
2017-05-10T10:13:25.670Z,977.7
2017-05-10T10:14:35.939Z,977.72
2017-05-10T10:15:46.206Z,977.73
2017-05-10T10:16:55.838Z,977.77
2017-05-10T10:18:06.106Z,977.72
2017-05-10T10:19:16.063Z,977.74
2017-05-10T10:20:26.324Z,977.73
2017-05-10T10:21:35.961Z,977.71
2017-05-10T10:22:46.229Z,977.71
2017-05-10T10:23:55.875Z,977.64
2017-05-10T10:25:06.150Z,977.61
2017-05-10T10:26:15.787Z,977.6
2017-05-10T10:27:26.052Z,977.61
2017-05-10T10:28:36.312Z,977.6
2017-05-10T10:29:46.581Z,977.55
2017-05-10T10:30:56.837Z,977.51
2017-05-10T10:32:07.103Z,977.48
2017-05-10T10:33:17.052Z,977.52
2017-05-10T10:34:27.382Z,977.45
2017-05-10T10:35:37.690Z,977.37
2017-05-10T10:36:47.648Z,977.39
2017-05-10T10:37:57.923Z,977.4
2017-05-10T10:39:08.180Z,977.38
2017-05-10T10:40:18.440Z,977.34
2017-05-10T10:41:28.709Z,977.32
2017-05-10T10:42:39.275Z,977.36
2017-05-10T10:43:49.531Z,977.39
2017-05-10T10:44:59.792Z,977.46
2017-05-10T10:46:10.135Z,977.49
2017-05-10T10:47:20.512Z,977.66
2017-05-10T10:48:34.711Z,977.78
2017-05-10T10:49:44.973Z,977.76
2017-05-10T10:50:54.925Z,977.79
2017-05-10T10:52:04.559Z,977.8
2017-05-10T10:53:13.252Z,977.76
2017-05-10T10:54:25.514Z,977.8
2017-05-10T10:55:35.458Z,977.76
2017-05-10T10:56:45.723Z,977.75
2017-05-10T10:57:55.994Z,977.79
2017-05-10T10:59:05.940Z,977.73
2017-05-10T11:00:16.202Z,977.73
2017-05-10T11:01:26.461Z,977.72
2017-05-10T11:02:36.726Z,977.73
2017-05-10T11:03:46.676Z,977.73
2017-05-10T11:04:56.627Z,977.67
2017-05-10T11:06:06.908Z,977.64
2017-05-10T11:07:16.850Z,977.62
2017-05-10T11:08:27.112Z,977.64
2017-05-10T11:09:37.377Z,977.69
2017-05-10T11:10:47.642Z,977.63
2017-05-10T11:11:57.904Z,977.56
2017-05-10T11:13:07.862Z,977.43
2017-05-10T11:14:17.826Z,977.43
2017-05-10T11:15:28.093Z,977.48
2017-05-10T11:16:38.367Z,977.52
2017-05-10T11:17:48.629Z,977.65
2017-05-10T11:18:58.890Z,977.58
2017-05-10T11:20:08.528Z,977.49
2017-05-10T11:21:18.163Z,977.48
2017-05-10T11:22:28.420Z,977.5
2017-05-10T11:23:38.684Z,977.41
2017-05-10T11:24:48.943Z,977.32
2017-05-10T11:25:59.208Z,977.23
2017-05-10T11:27:09.483Z,977.15
2017-05-10T11:28:19.436Z,977.14
2017-05-10T11:29:29.385Z,977.18
2017-05-10T11:30:39.641Z,977.24
2017-05-10T11:31:49.903Z,977.31
2017-05-10T11:32:59.862Z,977.44
2017-05-10T11:34:10.129Z,977.49
2017-05-10T11:35:20.413Z,977.58
2017-05-10T11:36:30.686Z,977.52
2017-05-10T11:37:40.318Z,977.55
2017-05-10T11:38:50.583Z,977.54
2017-05-10T11:40:00.850Z,977.6
2017-05-10T11:41:10.808Z,977.58
2017-05-10T11:42:20.441Z,977.57
2017-05-10T11:43:30.715Z,977.56
2017-05-10T11:44:40.978Z,977.62
2017-05-10T11:45:51.242Z,977.62
2017-05-10T11:47:01.194Z,977.63
2017-05-10T11:48:11.455Z,977.65
2017-05-10T11:49:21.401Z,977.61
2017-05-10T11:50:31.664Z,977.64
2017-05-10T11:51:41.926Z,977.64
2017-05-10T11:52:51.878Z,977.58
2017-05-10T11:54:01.831Z,977.6
2017-05-10T11:55:12.096Z,977.51
2017-05-10T11:56:21.736Z,977.52
2017-05-10T11:57:32.003Z,977.52
2017-05-10T11:58:42.268Z,977.45
2017-05-10T11:59:52.534Z,977.48
2017-05-10T12:01:02.174Z,977.47
2017-05-10T12:02:12.440Z,977.46
2017-05-10T12:03:22.714Z,977.45
2017-05-10T12:04:33.284Z,977.41
2017-05-10T12:05:43.547Z,977.37
2017-05-10T12:06:53.803Z,977.44
2017-05-10T12:08:03.434Z,977.42
2017-05-10T12:09:13.701Z,977.49
2017-05-10T12:10:23.897Z,977.53
2017-05-10T12:11:34.170Z,977.53
2017-05-10T12:12:44.125Z,977.57
2017-05-10T12:13:54.387Z,977.59
2017-05-10T12:15:04.651Z,977.54
2017-05-10T12:16:16.583Z,977.5
2017-05-10T12:17:26.851Z,977.49
2017-05-10T12:18:37.113Z,977.49
2017-05-10T12:19:47.057Z,977.49
2017-05-10T12:20:57.005Z,977.44
2017-05-10T12:22:07.523Z,977.51
2017-05-10T12:23:17.477Z,977.5
2017-05-10T12:24:27.430Z,977.52
2017-05-10T12:25:37.697Z,977.52
2017-05-10T12:26:47.965Z,977.47
2017-05-10T12:27:58.237Z,977.43
2017-05-10T12:29:08.190Z,977.46
2017-05-10T12:30:18.146Z,977.46
2017-05-10T12:31:28.402Z,977.38
2017-05-10T12:32:38.347Z,977.4
2017-05-10T12:33:48.291Z,977.4
2017-05-10T12:34:58.555Z,977.39
2017-05-10T12:36:08.510Z,977.4
2017-05-10T12:37:18.457Z,977.37
2017-05-10T12:38:28.718Z,977.37
2017-05-10T12:39:38.664Z,977.37
2017-05-10T12:40:48.926Z,977.33
2017-05-10T12:41:59.192Z,977.3
2017-05-10T12:43:09.137Z,977.28
2017-05-10T12:44:19.401Z,977.32
2017-05-10T12:45:29.661Z,977.31
2017-05-10T12:46:39.930Z,977.32
2017-05-10T12:47:50.195Z,977.32
2017-05-10T12:49:00.145Z,977.32
2017-05-10T12:50:10.098Z,977.35
2017-05-10T12:51:20.362Z,977.27
2017-05-10T12:52:30.619Z,977.22
2017-05-10T12:53:40.563Z,977.21
2017-05-10T12:54:50.826Z,977.2
2017-05-10T12:56:01.090Z,977.17
2017-05-10T12:57:11.036Z,977.11
2017-05-10T12:58:21.298Z,977.11
2017-05-10T12:59:31.577Z,977.07
2017-05-10T13:00:41.838Z,977.18
2017-05-10T13:01:52.102Z,977.27
2017-05-10T13:03:02.361Z,977.26
2017-05-10T13:04:12.619Z,977.27
2017-05-10T13:05:22.567Z,977.31
2017-05-10T13:06:32.827Z,977.28
2017-05-10T13:07:43.083Z,977.23
2017-05-10T13:08:53.339Z,977.22
2017-05-10T13:10:03.598Z,977.2
2017-05-10T13:11:13.859Z,977.22
2017-05-10T13:12:23.799Z,977.22
2017-05-10T13:13:33.751Z,977.27
2017-05-10T13:14:44.007Z,977.32
2017-05-10T13:15:54.262Z,977.41
2017-05-10T13:17:04.518Z,977.45
2017-05-10T13:18:14.464Z,977.37
2017-05-10T13:19:24.097Z,977.42
2017-05-10T13:20:34.357Z,977.37
2017-05-10T13:21:44.307Z,977.32
2017-05-10T13:22:54.569Z,977.3
2017-05-10T13:24:04.851Z,977.32
2017-05-10T13:25:15.121Z,977.32
2017-05-10T13:26:25.378Z,977.41
2017-05-10T13:27:35.329Z,977.5
2017-05-10T13:28:45.593Z,977.56
2017-05-10T13:29:55.848Z,977.6
2017-05-10T13:31:06.151Z,977.59
2017-05-10T13:32:16.410Z,977.5
2017-05-10T13:33:26.041Z,977.41
2017-05-10T13:34:36.305Z,977.32
2017-05-10T13:35:46.252Z,977.33
2017-05-10T13:36:56.519Z,977.37
2017-05-10T13:38:06.465Z,977.47
2017-05-10T13:39:16.725Z,977.47
2017-05-10T13:40:26.989Z,977.49
2017-05-10T13:41:37.254Z,977.43
2017-05-10T13:42:47.523Z,977.43
2017-05-10T13:43:57.784Z,977.44
2017-05-10T13:45:07.734Z,977.33
2017-05-10T13:46:17.992Z,977.23
2017-05-10T13:47:28.254Z,977.11
2017-05-10T13:48:37.890Z,977.06
2017-05-10T13:49:48.161Z,977.01
2017-05-10T13:50:58.418Z,976.94
2017-05-10T13:52:08.370Z,976.88
2017-05-10T13:53:18.313Z,976.82
2017-05-10T13:54:28.571Z,976.8
2017-05-10T13:55:38.839Z,976.82
2017-05-10T13:56:49.108Z,976.82
2017-05-10T13:57:59.369Z,976.85
2017-05-10T13:59:09.632Z,976.92
2017-05-10T14:00:19.894Z,976.88
2017-05-10T14:01:30.161Z,976.87
2017-05-10T14:02:40.105Z,976.86
2017-05-10T14:03:50.089Z,976.9
2017-05-10T14:05:00.365Z,976.9
2017-05-10T14:06:10.330Z,977.01
2017-05-10T14:07:19.964Z,977.03
2017-05-10T14:08:30.227Z,977.05
2017-05-10T14:09:39.861Z,977.17
2017-05-10T14:10:50.116Z,977.25
2017-05-10T14:12:00.376Z,977.15
2017-05-10T14:13:10.639Z,977.07
2017-05-10T14:14:20.583Z,977.04
2017-05-10T14:15:30.849Z,976.99
2017-05-10T14:16:41.106Z,976.98
2017-05-10T14:17:51.364Z,977.13
2017-05-10T14:19:01.623Z,977.31
2017-05-10T14:20:11.581Z,977.79
2017-05-10T14:21:21.527Z,977.6
2017-05-10T14:22:31.791Z,977.55
2017-05-10T14:23:42.054Z,978
2017-05-10T14:26:07.769Z,978.1
2017-05-10T14:27:17.714Z,978.23
2017-05-10T14:28:27.973Z,977.25
2017-05-10T14:29:38.234Z,976.97
2017-05-10T14:30:48.180Z,976.82
2017-05-10T14:31:58.128Z,976.85
2017-05-10T14:33:08.398Z,976.8
2017-05-10T14:34:18.660Z,976.68
2017-05-10T14:35:28.611Z,976.62
2017-05-10T14:36:38.871Z,976.62
2017-05-10T14:37:48.823Z,976.64
2017-05-10T14:38:58.781Z,976.65
2017-05-10T14:40:09.089Z,976.66